Pocahontas, AR (72455)

2:38 AM CDT on August 29, 2016 (GMT -0500)
Rural Ravenden Springs | | Change Station
Active Advisory: Flood Warning

Elev 680 ft 36.31 °N, 91.20 °W | Updated 7 minutes ago

Clear
Clear
75.7 °F
Feels Like 76 °F
N
0.0
Wind Variable Wind from ESE

Today
High -- | Low -- °F
--% Chance of Precip.
Yesterday
High -- | Low -- °F
Precip. -- in
Pressure 30.07 in
Visibility 10.0 miles
Clouds Clear
Heat Index 76 °F
Dew Point 72 °F
Humidity 88%
Rainfall 0.00 in
Snow Depth Not available.
6:33 AM 7:35 PM
Waning Crescent, 10% visible
METAR KARG 290735Z AUTO 01004KT 10SM CLR 24/22 A3007 RMK AO1
Pressure 30.07 in
Visibility 10.0 miles
Clouds Clear
Heat Index 76 °F
Dew Point 72 °F
Humidity 88%
Rainfall 0.00 in
Snow Depth Not available.
6:33 AM 7:35 PM
Waning Crescent, 10% visible
METAR KARG 290735Z AUTO 01004KT 10SM CLR 24/22 A3007 RMK AO1

10-Day Weather Forecast

Almanac

Astronomy

Aug. 29, 2016 Rise Set
Actual Time
Civil Twilight
Nautical Twilight
Astronomical Twilight
Moon
Length of Visible Light
Length of Day
Tomorrow will be .
, % of the Moon is Illuminated

Today's Extremes

State Highs State Lows

Community

WunderPhotos

Upload Photos

1,935,800 photos uploaded!

WunderBlog® & News

Nearby

Air Quality

  Air Quality AQ Index Pollutant
Not available.

Snow Depth

Station Depth Elevation

Earthquake Activity

City Distance Mag. Time & Date
Minimum magnitude displayed is 2.5.

Coastal Water Temperatures

Place Temperature

Stations

Nearby Weather Stations

Station Location Temp. Windchill Dew Point Humidity Wind Precip. Elev Updated Type
                   

Watches & Warnings

Flood Warning
Issued: 7:54 PM CDT Aug. 28, 2016 – National Weather Service

... Flood Warning extended until Friday afternoon... the Flood Warning
continues for
the Black River at Pocahontas.
* Until Friday afternoon... or until the warning is cancelled.
* At 7:00 PM Sunday the stage was 19.0 feet.
* Minor flooding is occurring and minor flooding is forecast.
* Flood stage is 17.0 feet.
* Forecast... the river will continue to fall to below flood stage by
Thursday morning.
* Impacts at 17.0 feet... agricultural lands along the river east and
south of Pocahontas will be impacted by high water. Equipment and
livestock should be moved to higher ground.


             Fld observed forecast 6 am
location stg stg day time Mon Tue Wed Thu Fri

Black River
Pocahontas 17 19.0 sun 07 PM 18.4 17.7 17.3 17.0 16.7




Lat... Lon 3612 9115 3625 9106 3630 9095 3620 9089
3617 9098 3610 9101